createdAt,value
2019-05-20T00:00:16.408Z,85.47
2019-05-20T00:02:45.680Z,85.15
2019-05-20T00:05:14.866Z,85.00
2019-05-20T00:07:44.019Z,84.74
2019-05-20T00:10:13.270Z,85.54
2019-05-20T00:12:42.668Z,85.86
2019-05-20T00:15:11.817Z,86.17
2019-05-20T00:17:40.970Z,86.63
2019-05-20T00:20:10.387Z,87.02
2019-05-20T00:22:39.590Z,87.01
2019-05-20T00:25:09.570Z,87.05
2019-05-20T00:27:38.774Z,86.98
2019-05-20T00:30:09.244Z,87.39
2019-05-20T00:32:41.699Z,87.46
2019-05-20T00:35:09.429Z,87.42
2019-05-20T00:37:38.632Z,87.49
2019-05-20T00:40:08.110Z,87.55
2019-05-20T00:42:37.333Z,87.73
2019-05-20T00:45:06.794Z,87.29
2019-05-20T00:47:36.029Z,87.25
2019-05-20T00:50:05.521Z,87.35
2019-05-20T00:52:34.678Z,87.82
2019-05-20T00:55:05.675Z,87.79
2019-05-20T00:57:34.867Z,87.92
2019-05-20T01:00:05.775Z,87.84
2019-05-20T01:02:34.953Z,87.48
2019-05-20T01:05:04.214Z,87.16
2019-05-20T01:07:33.354Z,87.18
2019-05-20T01:10:02.531Z,87.44
2019-05-20T01:12:31.733Z,87.75
2019-05-20T01:15:00.981Z,87.93
2019-05-20T01:17:30.134Z,88.10
2019-05-20T01:19:59.321Z,87.93
2019-05-20T01:22:28.508Z,88.16
2019-05-20T01:24:57.904Z,88.54
2019-05-20T01:27:27.060Z,88.69
2019-05-20T01:29:56.298Z,88.88
2019-05-20T01:32:25.459Z,88.74
2019-05-20T01:34:54.710Z,88.95
2019-05-20T01:37:23.900Z,89.03
2019-05-20T01:39:53.170Z,89.24
2019-05-20T01:42:22.522Z,89.19
2019-05-20T01:44:51.712Z,89.37
2019-05-20T01:47:20.869Z,89.39
2019-05-20T01:49:50.142Z,89.71
2019-05-20T01:52:19.286Z,89.62
2019-05-20T01:54:48.566Z,89.80
2019-05-20T01:57:17.793Z,90.13
2019-05-20T01:59:47.010Z,90.00
2019-05-20T02:02:16.180Z,89.44
2019-05-20T02:04:46.496Z,89.06
2019-05-20T02:07:15.844Z,89.46
2019-05-20T02:09:46.578Z,89.74
2019-05-20T02:12:15.774Z,89.92
2019-05-20T02:14:57.131Z,89.61
2019-05-20T02:17:26.299Z,90.12
2019-05-20T02:19:55.472Z,89.87
2019-05-20T02:22:24.728Z,90.20
2019-05-20T02:24:54.922Z,90.38
2019-05-20T02:27:25.228Z,90.19
2019-05-20T02:29:55.436Z,90.43
2019-05-20T02:32:24.636Z,91.01
2019-05-20T02:34:53.885Z,91.93
2019-05-20T02:37:23.119Z,92.40
2019-05-20T02:39:52.265Z,92.62
2019-05-20T02:42:21.452Z,92.79
2019-05-20T02:44:50.608Z,92.88
2019-05-20T02:47:19.812Z,92.92
2019-05-20T02:49:49.003Z,93.07
2019-05-20T02:52:18.223Z,93.38
2019-05-20T02:54:47.529Z,93.43
2019-05-20T02:57:16.751Z,93.37
2019-05-20T02:59:45.961Z,93.37
2019-05-20T03:02:15.235Z,93.33
2019-05-20T03:04:44.450Z,93.58
2019-05-20T03:07:14.735Z,93.55
2019-05-20T03:09:43.961Z,93.58
2019-05-20T03:12:13.263Z,93.55
2019-05-20T03:14:42.427Z,93.58
2019-05-20T03:17:11.611Z,93.29
2019-05-20T03:19:40.820Z,93.05
2019-05-20T03:22:09.988Z,93.11
2019-05-20T03:24:39.197Z,93.07
2019-05-20T03:27:08.625Z,92.81
2019-05-20T03:29:37.845Z,92.88
2019-05-20T03:32:08.845Z,92.97
2019-05-20T03:34:46.722Z,92.99
2019-05-20T03:37:09.050Z,92.91
2019-05-20T03:39:38.260Z,92.85
2019-05-20T03:42:09.233Z,92.87
2019-05-20T03:44:40.375Z,92.71
2019-05-20T03:47:09.655Z,92.37
2019-05-20T03:49:38.916Z,92.15
2019-05-20T03:52:08.264Z,92.13
2019-05-20T03:54:37.571Z,92.02
2019-05-20T03:57:06.874Z,91.84
2019-05-20T03:59:36.063Z,91.64
2019-05-20T04:02:05.284Z,91.76
2019-05-20T04:04:34.439Z,92.09
2019-05-20T04:07:03.634Z,92.05
2019-05-20T04:09:32.839Z,91.87
2019-05-20T04:12:02.049Z,91.78
2019-05-20T04:14:31.349Z,91.84
2019-05-20T04:17:00.693Z,91.76
2019-05-20T04:19:29.950Z,91.72
2019-05-20T04:21:59.171Z,91.17
2019-05-20T04:24:29.442Z,90.87
2019-05-20T04:27:02.281Z,90.59
2019-05-20T04:29:31.547Z,90.23
2019-05-20T04:32:00.737Z,89.74
2019-05-20T04:34:29.975Z,89.80
2019-05-20T04:36:59.282Z,89.99
2019-05-20T04:39:29.654Z,89.78
2019-05-20T04:41:58.856Z,89.47
2019-05-20T04:44:28.018Z,89.47
2019-05-20T04:46:58.132Z,89.33
2019-05-20T04:49:27.504Z,89.32
2019-05-20T04:51:57.041Z,89.24
2019-05-20T04:54:26.204Z,88.98
2019-05-20T04:56:55.358Z,88.94
2019-05-20T04:59:24.646Z,88.67
2019-05-20T05:01:53.846Z,88.89
2019-05-20T05:04:23.010Z,88.73
2019-05-20T05:06:52.169Z,88.44
2019-05-20T05:09:21.353Z,88.46
2019-05-20T05:11:50.511Z,87.97
2019-05-20T05:14:19.789Z,87.73
2019-05-20T05:16:48.937Z,88.06
2019-05-20T05:19:18.144Z,88.37
2019-05-20T05:21:47.311Z,88.16
2019-05-20T05:24:16.501Z,87.94
2019-05-20T05:26:47.812Z,87.58
2019-05-20T05:29:16.579Z,88.01
2019-05-20T05:31:45.725Z,88.29
2019-05-20T05:34:14.931Z,88.28
2019-05-20T05:36:44.129Z,87.81
2019-05-20T05:39:14.852Z,87.75
2019-05-20T05:41:44.060Z,87.48
2019-05-20T05:44:13.482Z,87.15
2019-05-20T05:46:44.483Z,86.95
2019-05-20T05:49:13.792Z,87.24
2019-05-20T05:51:43.129Z,87.39
2019-05-20T05:54:12.325Z,88.01
2019-05-20T05:56:41.525Z,88.17
2019-05-20T05:59:10.811Z,88.33
2019-05-20T06:01:40.041Z,88.60
2019-05-20T06:04:09.193Z,88.09
2019-05-20T06:06:39.607Z,86.92
2019-05-20T06:09:09.095Z,86.65
2019-05-20T06:11:38.266Z,85.97
2019-05-20T06:14:07.488Z,86.36
2019-05-20T06:16:37.234Z,86.37
2019-05-20T06:19:06.594Z,86.20
2019-05-20T06:21:35.800Z,86.39
2019-05-20T06:24:05.061Z,86.47
2019-05-20T06:26:34.365Z,87.06
2019-05-20T06:29:03.565Z,87.39
2019-05-20T06:31:32.818Z,86.30
2019-05-20T06:34:03.503Z,85.96
2019-05-20T06:36:35.847Z,86.43
2019-05-20T06:39:12.698Z,85.89
2019-05-20T06:41:42.705Z,85.30
2019-05-20T06:44:11.991Z,84.86
2019-05-20T06:46:41.298Z,84.79
2019-05-20T06:49:10.490Z,84.19
2019-05-20T06:51:39.700Z,84.17
2019-05-20T06:54:08.948Z,83.81
2019-05-20T06:56:37.468Z,85.07
2019-05-20T06:59:05.898Z,86.54
2019-05-20T07:01:34.126Z,86.81
2019-05-20T07:04:02.353Z,85.87
2019-05-20T07:06:44.594Z,85.05
2019-05-20T07:09:00.603Z,85.12
2019-05-20T07:11:28.862Z,85.25
2019-05-20T07:13:57.114Z,85.49
2019-05-20T07:16:25.354Z,85.86
2019-05-20T07:18:53.649Z,86.95
2019-05-20T07:21:21.867Z,85.80
2019-05-20T07:23:52.392Z,85.84
2019-05-20T07:26:20.161Z,85.03
2019-05-20T07:28:49.356Z,85.38
2019-05-20T07:31:18.580Z,84.77
2019-05-20T07:33:47.774Z,84.67
2019-05-20T07:36:16.934Z,83.95
2019-05-20T07:38:46.154Z,83.77
2019-05-20T07:41:16.796Z,83.17
2019-05-20T07:43:46.095Z,82.33
2019-05-20T07:46:15.494Z,83.08
2019-05-20T07:48:44.878Z,84.29
2019-05-20T07:51:14.656Z,83.13
2019-05-20T07:53:44.047Z,82.11
2019-05-20T07:56:16.485Z,81.56
2019-05-20T07:58:48.655Z,81.81
2019-05-20T08:01:17.840Z,81.65
2019-05-20T08:03:47.024Z,81.82
2019-05-20T08:06:16.179Z,81.47
2019-05-20T08:08:45.379Z,81.97
2019-05-20T08:11:14.562Z,82.04
2019-05-20T08:13:43.739Z,83.89
2019-05-20T08:16:12.882Z,84.82
2019-05-20T08:18:42.087Z,84.18
2019-05-20T08:21:11.372Z,84.55
2019-05-20T08:23:40.569Z,84.95
2019-05-20T08:26:09.806Z,84.41
2019-05-20T08:28:38.981Z,85.31
2019-05-20T08:31:08.185Z,84.97
2019-05-20T08:33:37.441Z,83.86
2019-05-20T08:36:06.597Z,84.45
2019-05-20T08:38:36.974Z,85.31
2019-05-20T08:41:06.195Z,85.94
2019-05-20T08:43:35.440Z,85.26
2019-05-20T08:46:04.870Z,83.08
2019-05-20T08:48:34.157Z,81.99
2019-05-20T08:51:03.369Z,83.73
2019-05-20T08:53:32.578Z,83.82
2019-05-20T08:56:01.913Z,82.78
2019-05-20T08:58:31.177Z,84.00
2019-05-20T09:01:00.554Z,83.40
2019-05-20T09:03:30.649Z,82.86
2019-05-20T09:06:00.076Z,84.38
2019-05-20T09:08:30.861Z,82.91
2019-05-20T09:11:00.027Z,82.89
2019-05-20T09:13:30.472Z,83.85
2019-05-20T09:15:59.644Z,83.32
2019-05-20T09:21:11.563Z,85.22
2019-05-20T09:23:40.897Z,85.09
2019-05-20T09:26:10.100Z,83.66
2019-05-20T09:28:39.384Z,82.67
2019-05-20T09:31:08.709Z,83.41
2019-05-20T09:33:38.215Z,83.21
2019-05-20T09:36:07.385Z,84.11
2019-05-20T09:38:37.174Z,83.04
2019-05-20T09:41:06.491Z,83.72
2019-05-20T09:43:35.704Z,83.42
2019-05-20T09:46:07.954Z,81.86
2019-05-20T09:48:35.905Z,82.73
2019-05-20T09:51:05.368Z,82.54
2019-05-20T09:53:34.526Z,83.94
2019-05-20T09:56:03.945Z,83.27
2019-05-20T09:58:33.257Z,83.68
2019-05-20T10:01:02.456Z,83.74
2019-05-20T10:03:31.621Z,84.23
2019-05-20T10:06:00.787Z,82.06
2019-05-20T10:08:38.866Z,83.01
2019-05-20T10:11:01.488Z,83.81
2019-05-20T10:13:30.758Z,82.74
2019-05-20T10:15:59.961Z,84.25
2019-05-20T10:18:37.224Z,82.42
2019-05-20T10:21:00.072Z,82.55
2019-05-20T10:23:29.250Z,84.10
2019-05-20T10:25:58.450Z,84.59
2019-05-20T10:28:27.738Z,83.48
2019-05-20T10:30:56.934Z,81.91
2019-05-20T10:33:26.227Z,82.13
2019-05-20T10:35:55.503Z,81.97
2019-05-20T10:38:24.718Z,80.27
2019-05-20T10:40:54.023Z,81.63
2019-05-20T10:43:23.238Z,79.94
2019-05-20T10:45:52.443Z,80.13
2019-05-20T10:48:21.661Z,81.87
2019-05-20T10:50:50.884Z,80.06
2019-05-20T10:53:20.183Z,80.54
2019-05-20T10:55:49.666Z,79.22
2019-05-20T10:58:18.882Z,78.99
2019-05-20T11:01:01.686Z,79.15
2019-05-20T11:03:18.965Z,78.76
2019-05-20T11:05:48.171Z,78.97
2019-05-20T11:08:17.466Z,78.64
2019-05-20T11:10:46.661Z,79.65
2019-05-20T11:13:16.233Z,77.26
2019-05-20T11:15:45.424Z,78.12
2019-05-20T11:18:14.614Z,79.29
2019-05-20T11:20:43.832Z,77.01
2019-05-20T11:23:13.005Z,75.10
2019-05-20T11:25:42.210Z,73.07
2019-05-20T11:28:12.064Z,73.44
2019-05-20T11:30:41.464Z,70.70
2019-05-20T11:33:10.645Z,71.53
2019-05-20T11:35:39.849Z,74.09
2019-05-20T11:38:09.120Z,72.10
2019-05-20T11:40:38.304Z,73.11
2019-05-20T11:43:07.542Z,70.54
2019-05-20T11:45:36.702Z,70.02
2019-05-20T11:48:05.937Z,68.73
2019-05-20T11:50:35.157Z,66.19
2019-05-20T11:53:04.442Z,67.23
2019-05-20T11:55:33.751Z,65.83
2019-05-20T11:58:15.482Z,67.47
2019-05-20T12:00:33.941Z,66.92
2019-05-20T12:03:03.206Z,67.84
2019-05-20T12:05:32.448Z,65.51
2019-05-20T12:08:02.338Z,67.59
2019-05-20T12:10:31.591Z,70.38
2019-05-20T12:13:00.967Z,70.90
2019-05-20T12:15:30.181Z,69.07
2019-05-20T12:17:59.595Z,68.32
2019-05-20T12:20:29.014Z,66.82
2019-05-20T12:22:58.395Z,67.71
2019-05-20T12:25:27.720Z,65.69
2019-05-20T12:27:56.991Z,63.82
2019-05-20T12:30:26.395Z,66.12
2019-05-20T12:33:17.090Z,64.26
2019-05-20T12:35:26.489Z,64.93
2019-05-20T12:37:55.815Z,64.62
2019-05-20T12:40:25.031Z,64.75
2019-05-20T12:42:54.280Z,68.05
2019-05-20T12:45:23.609Z,65.23
2019-05-20T12:47:53.046Z,65.58
2019-05-20T12:50:22.588Z,65.17
2019-05-20T12:52:51.754Z,64.81
2019-05-20T12:55:21.253Z,63.48
2019-05-20T12:57:50.469Z,63.10
2019-05-20T13:00:20.387Z,61.88
2019-05-20T13:02:49.538Z,59.93
2019-05-20T13:05:18.808Z,59.85
2019-05-20T13:07:48.214Z,57.12
2019-05-20T13:10:29.317Z,59.10
2019-05-20T13:12:48.736Z,60.47
2019-05-20T13:15:18.000Z,58.83
2019-05-20T13:17:47.254Z,54.49
2019-05-20T13:20:16.502Z,57.97
2019-05-20T13:22:45.727Z,57.67
2019-05-20T13:25:15.190Z,57.82
2019-05-20T13:27:44.323Z,56.20
2019-05-20T13:30:13.801Z,58.12
2019-05-20T13:32:43.008Z,58.57
2019-05-20T13:35:12.346Z,60.43
2019-05-20T13:37:41.520Z,58.51
2019-05-20T13:40:10.927Z,56.91
2019-05-20T13:42:40.127Z,57.31
2019-05-20T13:45:10.167Z,57.26
2019-05-20T13:47:39.461Z,59.20
2019-05-20T13:50:10.606Z,58.45
2019-05-20T13:52:39.828Z,56.43
2019-05-20T13:55:10.718Z,59.18
2019-05-20T13:57:39.925Z,58.72
2019-05-20T14:00:09.456Z,54.21
2019-05-20T14:02:38.928Z,55.56
2019-05-20T14:05:08.189Z,54.86
2019-05-20T14:07:37.438Z,55.11
2019-05-20T14:10:07.010Z,57.10
2019-05-20T14:12:36.202Z,57.88
2019-05-20T14:15:05.969Z,58.91
2019-05-20T14:17:35.134Z,58.78
2019-05-20T14:20:05.641Z,61.90
2019-05-20T14:22:34.829Z,61.96
2019-05-20T14:25:04.362Z,58.36
2019-05-20T14:27:33.552Z,56.55
2019-05-20T14:30:04.266Z,55.99
2019-05-20T14:32:33.534Z,59.65
2019-05-20T14:35:02.786Z,61.80
2019-05-20T14:37:31.954Z,59.94
2019-05-20T14:40:02.331Z,57.55
2019-05-20T14:42:31.543Z,56.01
2019-05-20T14:45:00.744Z,57.61
2019-05-20T14:47:30.119Z,56.53
2019-05-20T14:49:59.329Z,54.33
2019-05-20T14:52:28.503Z,52.36
2019-05-20T14:54:57.862Z,50.96
2019-05-20T14:57:27.397Z,52.26
2019-05-20T14:59:56.815Z,53.23
2019-05-20T15:02:25.967Z,50.56
2019-05-20T15:04:56.998Z,50.52
2019-05-20T15:07:30.765Z,53.97
2019-05-20T15:09:57.196Z,52.09
2019-05-20T15:12:26.473Z,51.03
2019-05-20T15:14:55.641Z,51.93
2019-05-20T15:17:24.792Z,49.77
2019-05-20T15:19:54.034Z,51.69
2019-05-20T15:22:23.205Z,55.29
2019-05-20T15:24:52.464Z,58.30
2019-05-20T15:27:21.672Z,56.34
2019-05-20T15:29:50.860Z,55.68
2019-05-20T15:32:20.033Z,56.36
2019-05-20T15:34:49.269Z,51.51
2019-05-20T15:37:18.502Z,53.58
2019-05-20T15:39:47.725Z,53.10
2019-05-20T15:42:16.906Z,52.79
2019-05-20T15:44:46.123Z,52.42
2019-05-20T15:47:18.604Z,52.81
2019-05-20T15:49:46.346Z,54.90
2019-05-20T15:52:15.520Z,55.76
2019-05-20T15:54:44.897Z,55.26
2019-05-20T15:57:14.159Z,55.50
2019-05-20T15:59:46.299Z,56.90
2019-05-20T16:02:14.527Z,57.65
2019-05-20T16:04:43.680Z,60.41
2019-05-20T16:07:12.850Z,59.16
2019-05-20T16:09:42.072Z,60.27
2019-05-20T16:12:11.390Z,58.62
2019-05-20T16:14:40.622Z,59.37
2019-05-20T16:17:09.820Z,61.11
2019-05-20T16:19:39.046Z,61.73
2019-05-20T16:22:08.298Z,60.72
2019-05-20T16:24:37.612Z,61.21
2019-05-20T16:27:07.037Z,61.60
2019-05-20T16:29:35.300Z,62.30
2019-05-20T16:32:04.466Z,63.21
2019-05-20T16:34:32.738Z,64.09
2019-05-20T16:37:00.971Z,63.06
2019-05-20T16:39:31.101Z,62.89
2019-05-20T16:41:59.241Z,62.18
2019-05-20T16:44:27.484Z,62.92
2019-05-20T16:46:55.768Z,62.87
2019-05-20T16:49:24.017Z,62.38
2019-05-20T16:51:52.461Z,61.83
2019-05-20T16:54:20.717Z,63.43
2019-05-20T16:56:48.967Z,62.97
2019-05-20T16:59:17.369Z,63.28
2019-05-20T17:01:46.782Z,65.85
2019-05-20T17:04:15.168Z,66.78
2019-05-20T17:06:43.512Z,66.78
2019-05-20T17:09:12.723Z,66.30
2019-05-20T17:11:40.971Z,66.21
2019-05-20T17:14:10.630Z,67.68
2019-05-20T17:16:39.201Z,69.28
2019-05-20T17:19:08.749Z,68.56
2019-05-20T17:21:37.995Z,69.20
2019-05-20T17:24:07.232Z,69.19
2019-05-20T17:26:36.428Z,69.69
2019-05-20T17:29:05.639Z,70.02
2019-05-20T17:31:34.845Z,70.46
2019-05-20T17:34:04.027Z,70.13
2019-05-20T17:36:33.249Z,70.16
2019-05-20T17:39:02.514Z,69.83
2019-05-20T17:41:31.773Z,70.75
2019-05-20T17:44:01.035Z,69.51
2019-05-20T17:46:30.206Z,69.96
2019-05-20T17:48:59.458Z,69.82
2019-05-20T17:51:28.651Z,70.18
2019-05-20T17:53:57.899Z,70.90
2019-05-20T17:56:27.154Z,71.03
2019-05-20T17:58:57.458Z,70.43
2019-05-20T18:01:27.772Z,71.43
2019-05-20T18:03:57.112Z,71.16
2019-05-20T18:06:26.418Z,70.41
2019-05-20T18:08:57.302Z,71.47
2019-05-20T18:11:26.755Z,70.99
2019-05-20T18:13:56.138Z,72.23
2019-05-20T18:16:25.401Z,71.07
2019-05-20T18:18:56.585Z,71.57
2019-05-20T18:21:25.802Z,72.23
2019-05-20T18:23:55.132Z,73.68
2019-05-20T18:26:24.500Z,73.41
2019-05-20T18:28:53.856Z,73.33
2019-05-20T18:31:32.087Z,73.21
2019-05-20T18:33:54.261Z,74.00
2019-05-20T18:36:23.699Z,75.18
2019-05-20T18:38:53.078Z,74.53
2019-05-20T18:41:22.368Z,74.62
2019-05-20T18:43:51.870Z,74.17
2019-05-20T18:46:22.390Z,75.35
2019-05-20T18:48:53.631Z,75.75
2019-05-20T18:51:23.856Z,75.47
2019-05-20T18:53:53.367Z,75.50
2019-05-20T18:56:25.076Z,75.53
2019-05-20T18:58:54.314Z,75.82
2019-05-20T19:01:23.641Z,75.95
2019-05-20T19:03:54.592Z,76.61
2019-05-20T19:06:24.186Z,76.19
2019-05-20T19:08:53.468Z,76.42
2019-05-20T19:11:27.868Z,76.19
2019-05-20T19:13:57.193Z,77.38
2019-05-20T19:16:27.119Z,77.42
2019-05-20T19:18:56.609Z,77.02
2019-05-20T19:21:31.200Z,78.32
2019-05-20T19:24:00.502Z,78.49
2019-05-20T19:26:29.823Z,78.06
2019-05-20T19:28:59.536Z,78.46
2019-05-20T19:31:29.195Z,77.77
2019-05-20T19:33:58.521Z,78.74
2019-05-20T19:36:27.818Z,78.41
2019-05-20T19:38:59.442Z,78.68
2019-05-20T19:41:29.464Z,79.31
2019-05-20T19:43:59.075Z,79.55
2019-05-20T19:46:30.844Z,79.58
2019-05-20T19:49:00.118Z,80.26
2019-05-20T19:51:29.418Z,80.07
2019-05-20T19:53:59.574Z,79.55
2019-05-20T19:56:28.895Z,79.31
2019-05-20T19:58:58.154Z,79.63
2019-05-20T20:01:27.774Z,79.60
2019-05-20T20:03:57.063Z,79.35
2019-05-20T20:06:26.325Z,79.74
2019-05-20T20:08:55.651Z,79.87
2019-05-20T20:11:25.191Z,80.05
2019-05-20T20:13:54.480Z,79.69
2019-05-20T20:16:23.905Z,80.04
2019-05-20T20:18:55.422Z,80.39
2019-05-20T20:21:24.655Z,80.80
2019-05-20T20:23:54.002Z,80.88
2019-05-20T20:26:23.247Z,80.15
2019-05-20T20:28:52.630Z,81.04
2019-05-20T20:31:23.655Z,80.23
2019-05-20T20:33:53.113Z,79.75
2019-05-20T20:36:22.356Z,80.97
2019-05-20T20:38:51.596Z,81.02
2019-05-20T20:41:20.896Z,80.58
2019-05-20T20:43:50.168Z,81.34
2019-05-20T20:46:19.462Z,81.95
2019-05-20T20:48:49.847Z,82.54
2019-05-20T20:51:20.321Z,82.23
2019-05-20T20:53:49.844Z,82.65
2019-05-20T20:56:25.274Z,82.71
2019-05-20T20:58:49.973Z,82.44
2019-05-20T21:01:19.263Z,82.64
2019-05-20T21:03:48.794Z,82.43
2019-05-20T21:06:18.015Z,81.84
2019-05-20T21:08:47.283Z,81.97
2019-05-20T21:11:16.505Z,81.93
2019-05-20T21:13:45.688Z,82.69
2019-05-20T21:16:14.887Z,82.13
2019-05-20T21:18:44.146Z,82.26
2019-05-20T21:21:14.057Z,82.50
2019-05-20T21:23:43.239Z,82.65
2019-05-20T21:26:12.461Z,82.65
2019-05-20T21:28:41.695Z,82.00
2019-05-20T21:31:10.861Z,82.17
2019-05-20T21:33:40.057Z,82.53
2019-05-20T21:36:09.283Z,82.91
2019-05-20T21:38:38.456Z,82.70
2019-05-20T21:41:07.682Z,82.70
2019-05-20T21:43:38.796Z,82.71
2019-05-20T21:46:08.028Z,82.54
2019-05-20T21:48:37.266Z,82.99
2019-05-20T21:51:06.651Z,83.22
2019-05-20T21:53:35.940Z,83.31
2019-05-20T21:56:05.182Z,82.99
2019-05-20T21:58:34.350Z,83.21
2019-05-20T22:01:04.030Z,83.42
2019-05-20T22:03:33.310Z,83.32
2019-05-20T22:06:02.497Z,83.96
2019-05-20T22:08:31.694Z,83.85
2019-05-20T22:11:01.743Z,83.91
2019-05-20T22:13:31.018Z,85.29
2019-05-20T22:16:00.184Z,85.82
2019-05-20T22:18:29.502Z,85.72
2019-05-20T22:20:58.845Z,85.79
2019-05-20T22:23:48.927Z,86.39
2019-05-20T22:26:18.127Z,87.10
2019-05-20T22:28:47.440Z,86.14
2019-05-20T22:31:16.705Z,85.79
2019-05-20T22:33:45.908Z,86.25
2019-05-20T22:36:15.101Z,86.61
2019-05-20T22:38:44.374Z,87.30
2019-05-20T22:41:13.527Z,87.15
2019-05-20T22:43:42.826Z,86.98
2019-05-20T22:46:12.177Z,87.29
2019-05-20T22:48:41.347Z,87.69
2019-05-20T22:51:10.545Z,87.83
2019-05-20T22:53:39.828Z,87.93
2019-05-20T22:56:09.027Z,87.53
2019-05-20T23:01:20.375Z,88.35
2019-05-20T23:03:56.369Z,88.26
2019-05-20T23:06:20.586Z,87.90
2019-05-20T23:08:49.756Z,87.42
2019-05-20T23:11:19.034Z,86.67
2019-05-20T23:13:48.234Z,86.60
2019-05-20T23:16:17.410Z,86.77
2019-05-20T23:18:46.626Z,86.75
2019-05-20T23:21:15.848Z,86.77
2019-05-20T23:23:45.137Z,86.15
2019-05-20T23:26:14.339Z,86.33
2019-05-20T23:28:43.635Z,86.49
2019-05-20T23:31:14.526Z,86.92
2019-05-20T23:33:43.864Z,87.62
2019-05-20T23:36:13.061Z,87.06
2019-05-20T23:38:42.286Z,87.52
2019-05-20T23:41:11.633Z,87.53
2019-05-20T23:43:40.867Z,87.67
2019-05-20T23:46:10.100Z,87.43
2019-05-20T23:48:39.386Z,87.51
2019-05-20T23:51:10.389Z,87.39
2019-05-20T23:53:39.612Z,87.81
2019-05-20T23:56:08.879Z,87.84
2019-05-20T23:58:38.057Z,88.12
